sensor_id;sensor_type;location;lat;lon;timestamp;P1;durP1;ratioP1;P2;durP2;ratioP2
33270;SDS011;53180;51.344;6.152;2023-02-25T00:01:43;2.88;;;2.67;;
33270;SDS011;53180;51.344;6.152;2023-02-25T00:04:28;5.38;;;2.90;;
33270;SDS011;53180;51.344;6.152;2023-02-25T00:06:59;2.97;;;2.70;;
33270;SDS011;53180;51.344;6.152;2023-02-25T00:09:30;2.90;;;2.70;;
33270;SDS011;53180;51.344;6.152;2023-02-25T00:11:59;2.92;;;2.70;;
33270;SDS011;53180;51.344;6.152;2023-02-25T00:14:28;3.30;;;3.05;;
33270;SDS011;53180;51.344;6.152;2023-02-25T00:16:56;2.95;;;2.75;;
33270;SDS011;53180;51.344;6.152;2023-02-25T00:19:25;2.97;;;2.78;;
33270;SDS011;53180;51.344;6.152;2023-02-25T00:21:53;4.57;;;2.80;;
33270;SDS011;53180;51.344;6.152;2023-02-25T00:24:22;3.13;;;2.92;;
33270;SDS011;53180;51.344;6.152;2023-02-25T00:26:51;2.70;;;2.55;;
33270;SDS011;53180;51.344;6.152;2023-02-25T00:29:20;3.83;;;3.22;;
33270;SDS011;53180;51.344;6.152;2023-02-25T00:31:48;3.00;;;2.80;;
33270;SDS011;53180;51.344;6.152;2023-02-25T00:34:17;3.40;;;3.10;;
33270;SDS011;53180;51.344;6.152;2023-02-25T00:36:45;3.47;;;2.55;;
33270;SDS011;53180;51.344;6.152;2023-02-25T00:39:15;3.10;;;2.80;;
33270;SDS011;53180;51.344;6.152;2023-02-25T00:41:44;3.00;;;2.80;;
33270;SDS011;53180;51.344;6.152;2023-02-25T00:44:13;4.05;;;3.17;;
33270;SDS011;53180;51.344;6.152;2023-02-25T00:46:42;3.13;;;2.83;;
33270;SDS011;53180;51.344;6.152;2023-02-25T00:49:10;4.57;;;3.20;;
33270;SDS011;53180;51.344;6.152;2023-02-25T00:51:55;5.35;;;4.65;;
33270;SDS011;53180;51.344;6.152;2023-02-25T00:54:25;2.88;;;2.67;;
33270;SDS011;53180;51.344;6.152;2023-02-25T00:56:54;3.72;;;3.13;;
33270;SDS011;53180;51.344;6.152;2023-02-25T00:59:24;3.63;;;3.33;;
33270;SDS011;53180;51.344;6.152;2023-02-25T01:01:52;3.17;;;2.97;;
33270;SDS011;53180;51.344;6.152;2023-02-25T01:04:21;2.97;;;2.78;;
33270;SDS011;53180;51.344;6.152;2023-02-25T01:06:49;2.83;;;2.63;;
33270;SDS011;53180;51.344;6.152;2023-02-25T01:09:19;3.20;;;3.00;;
33270;SDS011;53180;51.344;6.152;2023-02-25T01:11:48;3.00;;;2.80;;
33270;SDS011;53180;51.344;6.152;2023-02-25T01:14:17;2.92;;;2.72;;
33270;SDS011;53180;51.344;6.152;2023-02-25T01:16:49;3.35;;;3.08;;
33270;SDS011;53180;51.344;6.152;2023-02-25T01:19:21;4.38;;;3.03;;
33270;SDS011;53180;51.344;6.152;2023-02-25T01:21:52;3.13;;;2.92;;
33270;SDS011;53180;51.344;6.152;2023-02-25T01:24:23;7.88;;;3.08;;
33270;SDS011;53180;51.344;6.152;2023-02-25T01:26:54;3.97;;;3.42;;
33270;SDS011;53180;51.344;6.152;2023-02-25T01:29:26;3.53;;;3.22;;
33270;SDS011;53180;51.344;6.152;2023-02-25T01:31:59;3.33;;;3.03;;
33270;SDS011;53180;51.344;6.152;2023-02-25T01:34:29;3.30;;;3.00;;
33270;SDS011;53180;51.344;6.152;2023-02-25T01:36:58;4.63;;;3.40;;
33270;SDS011;53180;51.344;6.152;2023-02-25T01:39:27;3.35;;;3.08;;
33270;SDS011;53180;51.344;6.152;2023-02-25T01:41:57;3.28;;;3.08;;
33270;SDS011;53180;51.344;6.152;2023-02-25T01:44:30;16.50;;;3.22;;
33270;SDS011;53180;51.344;6.152;2023-02-25T01:47:02;5.00;;;3.53;;
33270;SDS011;53180;51.344;6.152;2023-02-25T01:49:33;2.92;;;2.70;;
33270;SDS011;53180;51.344;6.152;2023-02-25T01:52:05;9.23;;;2.97;;
33270;SDS011;53180;51.344;6.152;2023-02-25T01:54:38;2.92;;;2.72;;
33270;SDS011;53180;51.344;6.152;2023-02-25T01:57:08;3.00;;;2.80;;
33270;SDS011;53180;51.344;6.152;2023-02-25T01:59:39;3.22;;;3.03;;
33270;SDS011;53180;51.344;6.152;2023-02-25T02:02:11;3.70;;;3.40;;
33270;SDS011;53180;51.344;6.152;2023-02-25T02:04:42;3.38;;;3.08;;
33270;SDS011;53180;51.344;6.152;2023-02-25T02:07:15;3.08;;;2.88;;
33270;SDS011;53180;51.344;6.152;2023-02-25T02:09:45;3.47;;;3.20;;
33270;SDS011;53180;51.344;6.152;2023-02-25T02:12:21;3.53;;;3.22;;
33270;SDS011;53180;51.344;6.152;2023-02-25T02:14:53;3.17;;;2.97;;
33270;SDS011;53180;51.344;6.152;2023-02-25T02:17:26;3.10;;;2.90;;
33270;SDS011;53180;51.344;6.152;2023-02-25T02:20:05;3.10;;;2.90;;
33270;SDS011;53180;51.344;6.152;2023-02-25T02:22:48;3.47;;;3.17;;
33270;SDS011;53180;51.344;6.152;2023-02-25T02:25:48;3.38;;;3.17;;
33270;SDS011;53180;51.344;6.152;2023-02-25T02:28:52;3.95;;;3.47;;
33270;SDS011;53180;51.344;6.152;2023-02-25T02:31:58;4.25;;;3.00;;
33270;SDS011;53180;51.344;6.152;2023-02-25T02:34:39;3.38;;;3.08;;
33270;SDS011;53180;51.344;6.152;2023-02-25T02:37:20;3.65;;;3.33;;
33270;SDS011;53180;51.344;6.152;2023-02-25T02:40:02;3.60;;;3.30;;
33270;SDS011;53180;51.344;6.152;2023-02-25T02:42:44;3.22;;;2.97;;
33270;SDS011;53180;51.344;6.152;2023-02-25T02:45:30;4.15;;;3.30;;
33270;SDS011;53180;51.344;6.152;2023-02-25T02:48:07;3.38;;;3.17;;
33270;SDS011;53180;51.344;6.152;2023-02-25T02:50:40;3.72;;;2.85;;
33270;SDS011;53180;51.344;6.152;2023-02-25T02:53:12;3.58;;;2.80;;
33270;SDS011;53180;51.344;6.152;2023-02-25T02:55:49;3.28;;;3.03;;
33270;SDS011;53180;51.344;6.152;2023-02-25T02:58:21;4.20;;;3.00;;
33270;SDS011;53180;51.344;6.152;2023-02-25T03:00:54;3.95;;;3.35;;
33270;SDS011;53180;51.344;6.152;2023-02-25T03:03:27;2.97;;;2.78;;
33270;SDS011;53180;51.344;6.152;2023-02-25T03:06:03;2.97;;;2.78;;
33270;SDS011;53180;51.344;6.152;2023-02-25T03:08:39;2.97;;;2.78;;
33270;SDS011;53180;51.344;6.152;2023-02-25T03:11:11;2.90;;;2.70;;
33270;SDS011;53180;51.344;6.152;2023-02-25T03:13:40;3.10;;;2.90;;
33270;SDS011;53180;51.344;6.152;2023-02-25T03:16:09;3.05;;;2.85;;
33270;SDS011;53180;51.344;6.152;2023-02-25T03:18:48;3.47;;;3.28;;
33270;SDS011;53180;51.344;6.152;2023-02-25T03:21:22;2.85;;;2.65;;
33270;SDS011;53180;51.344;6.152;2023-02-25T03:23:56;4.20;;;2.97;;
33270;SDS011;53180;51.344;6.152;2023-02-25T03:26:26;4.88;;;3.15;;
33270;SDS011;53180;51.344;6.152;2023-02-25T03:28:57;6.22;;;3.00;;
33270;SDS011;53180;51.344;6.152;2023-02-25T03:31:26;3.33;;;3.05;;
33270;SDS011;53180;51.344;6.152;2023-02-25T03:34:02;3.40;;;3.15;;
33270;SDS011;53180;51.344;6.152;2023-02-25T03:36:36;12.25;;;3.00;;
33270;SDS011;53180;51.344;6.152;2023-02-25T03:39:10;7.40;;;3.55;;
33270;SDS011;53180;51.344;6.152;2023-02-25T03:41:42;3.63;;;3.33;;
33270;SDS011;53180;51.344;6.152;2023-02-25T03:44:16;5.07;;;3.20;;
33270;SDS011;53180;51.344;6.152;2023-02-25T03:46:48;2.97;;;2.70;;
33270;SDS011;53180;51.344;6.152;2023-02-25T03:49:20;2.72;;;2.53;;
33270;SDS011;53180;51.344;6.152;2023-02-25T03:51:54;2.95;;;2.75;;
33270;SDS011;53180;51.344;6.152;2023-02-25T03:54:25;3.25;;;2.78;;
33270;SDS011;53180;51.344;6.152;2023-02-25T03:56:53;3.00;;;2.80;;
33270;SDS011;53180;51.344;6.152;2023-02-25T03:59:22;6.63;;;2.80;;
33270;SDS011;53180;51.344;6.152;2023-02-25T04:01:53;2.67;;;2.55;;
33270;SDS011;53180;51.344;6.152;2023-02-25T04:04:25;2.85;;;2.65;;
33270;SDS011;53180;51.344;6.152;2023-02-25T04:06:53;2.80;;;2.60;;
33270;SDS011;53180;51.344;6.152;2023-02-25T04:09:21;3.15;;;2.78;;
33270;SDS011;53180;51.344;6.152;2023-02-25T04:11:50;3.00;;;2.80;;
33270;SDS011;53180;51.344;6.152;2023-02-25T04:14:22;3.15;;;2.92;;
33270;SDS011;53180;51.344;6.152;2023-02-25T04:16:51;3.33;;;2.97;;
33270;SDS011;53180;51.344;6.152;2023-02-25T04:19:19;3.53;;;3.25;;
33270;SDS011;53180;51.344;6.152;2023-02-25T04:21:49;4.20;;;2.92;;
33270;SDS011;53180;51.344;6.152;2023-02-25T04:24:17;3.95;;;3.13;;
33270;SDS011;53180;51.344;6.152;2023-02-25T04:26:45;6.75;;;2.97;;
33270;SDS011;53180;51.344;6.152;2023-02-25T04:29:14;6.28;;;2.95;;
33270;SDS011;53180;51.344;6.152;2023-02-25T04:31:43;5.13;;;2.80;;
33270;SDS011;53180;51.344;6.152;2023-02-25T04:34:11;3.08;;;2.88;;
33270;SDS011;53180;51.344;6.152;2023-02-25T04:36:40;8.30;;;2.95;;
33270;SDS011;53180;51.344;6.152;2023-02-25T04:39:11;3.03;;;2.83;;
33270;SDS011;53180;51.344;6.152;2023-02-25T04:41:42;3.40;;;3.10;;
33270;SDS011;53180;51.344;6.152;2023-02-25T04:44:11;3.00;;;2.80;;
33270;SDS011;53180;51.344;6.152;2023-02-25T04:46:40;4.10;;;2.75;;
33270;SDS011;53180;51.344;6.152;2023-02-25T04:49:09;5.20;;;2.85;;
33270;SDS011;53180;51.344;6.152;2023-02-25T04:51:38;4.30;;;3.13;;
33270;SDS011;53180;51.344;6.152;2023-02-25T04:54:06;2.88;;;2.67;;
33270;SDS011;53180;51.344;6.152;2023-02-25T04:56:36;3.25;;;2.80;;
33270;SDS011;53180;51.344;6.152;2023-02-25T04:59:05;3.00;;;2.80;;
33270;SDS011;53180;51.344;6.152;2023-02-25T05:01:36;2.80;;;2.55;;
33270;SDS011;53180;51.344;6.152;2023-02-25T05:04:05;2.60;;;2.40;;
33270;SDS011;53180;51.344;6.152;2023-02-25T05:06:34;3.20;;;2.95;;
33270;SDS011;53180;51.344;6.152;2023-02-25T05:09:02;3.22;;;2.90;;
33270;SDS011;53180;51.344;6.152;2023-02-25T05:11:30;3.53;;;2.80;;
33270;SDS011;53180;51.344;6.152;2023-02-25T05:14:00;2.80;;;2.60;;
33270;SDS011;53180;51.344;6.152;2023-02-25T05:16:29;3.30;;;3.00;;
33270;SDS011;53180;51.344;6.152;2023-02-25T05:18:57;5.70;;;3.13;;
33270;SDS011;53180;51.344;6.152;2023-02-25T05:21:25;2.78;;;2.50;;
33270;SDS011;53180;51.344;6.152;2023-02-25T05:23:54;2.80;;;2.60;;
33270;SDS011;53180;51.344;6.152;2023-02-25T05:26:23;3.33;;;3.00;;
33270;SDS011;53180;51.344;6.152;2023-02-25T05:28:53;4.47;;;3.00;;
33270;SDS011;53180;51.344;6.152;2023-02-25T05:31:24;4.55;;;3.30;;
33270;SDS011;53180;51.344;6.152;2023-02-25T05:33:53;7.93;;;3.35;;
33270;SDS011;53180;51.344;6.152;2023-02-25T05:36:21;5.20;;;3.00;;
33270;SDS011;53180;51.344;6.152;2023-02-25T05:38:54;5.22;;;3.10;;
33270;SDS011;53180;51.344;6.152;2023-02-25T05:41:28;7.45;;;2.95;;
33270;SDS011;53180;51.344;6.152;2023-02-25T05:43:57;3.33;;;3.03;;
33270;SDS011;53180;51.344;6.152;2023-02-25T05:46:26;3.08;;;2.85;;
33270;SDS011;53180;51.344;6.152;2023-02-25T05:48:55;3.10;;;2.90;;
33270;SDS011;53180;51.344;6.152;2023-02-25T05:51:23;3.22;;;3.00;;
33270;SDS011;53180;51.344;6.152;2023-02-25T05:53:52;3.20;;;2.70;;
33270;SDS011;53180;51.344;6.152;2023-02-25T05:56:21;3.17;;;2.88;;
33270;SDS011;53180;51.344;6.152;2023-02-25T05:58:57;3.17;;;2.65;;
33270;SDS011;53180;51.344;6.152;2023-02-25T06:01:27;3.60;;;3.28;;
33270;SDS011;53180;51.344;6.152;2023-02-25T06:03:57;11.10;;;3.17;;
33270;SDS011;53180;51.344;6.152;2023-02-25T06:06:26;2.95;;;2.75;;
33270;SDS011;53180;51.344;6.152;2023-02-25T06:08:57;4.28;;;3.42;;
33270;SDS011;53180;51.344;6.152;2023-02-25T06:11:26;6.13;;;3.17;;
33270;SDS011;53180;51.344;6.152;2023-02-25T06:13:56;3.67;;;3.15;;
33270;SDS011;53180;51.344;6.152;2023-02-25T06:16:27;3.73;;;3.33;;
33270;SDS011;53180;51.344;6.152;2023-02-25T06:18:58;3.25;;;3.03;;
33270;SDS011;53180;51.344;6.152;2023-02-25T06:21:28;3.17;;;2.90;;
33270;SDS011;53180;51.344;6.152;2023-02-25T06:23:57;3.38;;;2.70;;
33270;SDS011;53180;51.344;6.152;2023-02-25T06:26:25;3.00;;;2.78;;
33270;SDS011;53180;51.344;6.152;2023-02-25T06:28:54;4.22;;;2.90;;
33270;SDS011;53180;51.344;6.152;2023-02-25T06:31:24;2.92;;;2.72;;
33270;SDS011;53180;51.344;6.152;2023-02-25T06:33:53;3.22;;;2.92;;
33270;SDS011;53180;51.344;6.152;2023-02-25T06:36:22;3.25;;;3.03;;
33270;SDS011;53180;51.344;6.152;2023-02-25T06:38:51;3.13;;;2.90;;
33270;SDS011;53180;51.344;6.152;2023-02-25T06:41:19;3.70;;;2.78;;
33270;SDS011;53180;51.344;6.152;2023-02-25T06:43:49;2.83;;;2.63;;
33270;SDS011;53180;51.344;6.152;2023-02-25T06:46:18;15.95;;;3.05;;
33270;SDS011;53180;51.344;6.152;2023-02-25T06:48:49;4.00;;;2.88;;
33270;SDS011;53180;51.344;6.152;2023-02-25T06:51:19;3.42;;;3.15;;
33270;SDS011;53180;51.344;6.152;2023-02-25T06:53:48;8.07;;;3.60;;
33270;SDS011;53180;51.344;6.152;2023-02-25T06:56:18;4.03;;;2.83;;
33270;SDS011;53180;51.344;6.152;2023-02-25T06:58:48;12.45;;;3.35;;
33270;SDS011;53180;51.344;6.152;2023-02-25T07:01:17;3.33;;;3.03;;
33270;SDS011;53180;51.344;6.152;2023-02-25T07:03:46;4.50;;;3.75;;
33270;SDS011;53180;51.344;6.152;2023-02-25T07:06:15;3.05;;;2.85;;
33270;SDS011;53180;51.344;6.152;2023-02-25T07:08:45;3.50;;;2.95;;
33270;SDS011;53180;51.344;6.152;2023-02-25T07:11:20;3.17;;;2.88;;
33270;SDS011;53180;51.344;6.152;2023-02-25T07:13:56;3.42;;;3.13;;
33270;SDS011;53180;51.344;6.152;2023-02-25T07:16:24;3.80;;;3.53;;
33270;SDS011;53180;51.344;6.152;2023-02-25T07:18:55;3.45;;;3.20;;
33270;SDS011;53180;51.344;6.152;2023-02-25T07:21:27;3.10;;;2.90;;
33270;SDS011;53180;51.344;6.152;2023-02-25T07:23:58;4.20;;;3.00;;
33270;SDS011;53180;51.344;6.152;2023-02-25T07:26:27;10.27;;;3.08;;
33270;SDS011;53180;51.344;6.152;2023-02-25T07:28:56;4.85;;;3.17;;
33270;SDS011;53180;51.344;6.152;2023-02-25T07:31:25;3.42;;;2.95;;
33270;SDS011;53180;51.344;6.152;2023-02-25T07:33:55;3.30;;;3.00;;
33270;SDS011;53180;51.344;6.152;2023-02-25T07:36:28;4.03;;;3.55;;
33270;SDS011;53180;51.344;6.152;2023-02-25T07:39:00;5.63;;;3.05;;
33270;SDS011;53180;51.344;6.152;2023-02-25T07:41:29;3.80;;;3.15;;
33270;SDS011;53180;51.344;6.152;2023-02-25T07:43:58;11.77;;;3.00;;
33270;SDS011;53180;51.344;6.152;2023-02-25T07:46:27;5.00;;;2.60;;
33270;SDS011;53180;51.344;6.152;2023-02-25T07:48:56;3.78;;;2.70;;
33270;SDS011;53180;51.344;6.152;2023-02-25T07:51:25;3.17;;;2.97;;
33270;SDS011;53180;51.344;6.152;2023-02-25T07:53:54;3.58;;;2.70;;
33270;SDS011;53180;51.344;6.152;2023-02-25T07:56:25;3.17;;;2.70;;
33270;SDS011;53180;51.344;6.152;2023-02-25T07:58:56;3.13;;;2.83;;
33270;SDS011;53180;51.344;6.152;2023-02-25T08:01:26;8.73;;;2.80;;
33270;SDS011;53180;51.344;6.152;2023-02-25T08:03:57;2.80;;;2.60;;
33270;SDS011;53180;51.344;6.152;2023-02-25T08:06:29;2.83;;;2.63;;
33270;SDS011;53180;51.344;6.152;2023-02-25T08:08:58;2.92;;;2.70;;
33270;SDS011;53180;51.344;6.152;2023-02-25T08:11:28;2.78;;;2.58;;
33270;SDS011;53180;51.344;6.152;2023-02-25T08:13:57;3.58;;;2.95;;
33270;SDS011;53180;51.344;6.152;2023-02-25T08:16:26;2.65;;;2.42;;
33270;SDS011;53180;51.344;6.152;2023-02-25T08:18:55;5.07;;;3.72;;
33270;SDS011;53180;51.344;6.152;2023-02-25T08:21:24;2.78;;;2.55;;
33270;SDS011;53180;51.344;6.152;2023-02-25T08:23:53;2.88;;;2.67;;
33270;SDS011;53180;51.344;6.152;2023-02-25T08:26:22;6.00;;;3.25;;
33270;SDS011;53180;51.344;6.152;2023-02-25T08:28:54;2.85;;;2.65;;
33270;SDS011;53180;51.344;6.152;2023-02-25T08:31:23;7.47;;;2.92;;
33270;SDS011;53180;51.344;6.152;2023-02-25T08:33:53;2.72;;;2.53;;
33270;SDS011;53180;51.344;6.152;2023-02-25T08:36:23;2.85;;;2.60;;
33270;SDS011;53180;51.344;6.152;2023-02-25T08:38:53;2.90;;;2.63;;
33270;SDS011;53180;51.344;6.152;2023-02-25T08:41:24;2.65;;;2.45;;
33270;SDS011;53180;51.344;6.152;2023-02-25T08:43:57;2.92;;;2.58;;
33270;SDS011;53180;51.344;6.152;2023-02-25T08:46:28;2.50;;;2.30;;
33270;SDS011;53180;51.344;6.152;2023-02-25T08:48:58;3.60;;;2.47;;
33270;SDS011;53180;51.344;6.152;2023-02-25T08:51:26;2.75;;;2.55;;
33270;SDS011;53180;51.344;6.152;2023-02-25T08:54:00;2.83;;;2.35;;
33270;SDS011;53180;51.344;6.152;2023-02-25T08:56:31;2.30;;;2.20;;
33270;SDS011;53180;51.344;6.152;2023-02-25T08:59:02;2.63;;;2.42;;
33270;SDS011;53180;51.344;6.152;2023-02-25T09:01:31;3.73;;;2.80;;
33270;SDS011;53180;51.344;6.152;2023-02-25T09:04:11;2.38;;;2.17;;
33270;SDS011;53180;51.344;6.152;2023-02-25T09:06:41;2.72;;;2.13;;
33270;SDS011;53180;51.344;6.152;2023-02-25T09:09:12;5.93;;;2.47;;
33270;SDS011;53180;51.344;6.152;2023-02-25T09:11:42;4.60;;;2.17;;
33270;SDS011;53180;51.344;6.152;2023-02-25T09:14:13;4.40;;;2.40;;
33270;SDS011;53180;51.344;6.152;2023-02-25T09:16:43;2.35;;;2.15;;
33270;SDS011;53180;51.344;6.152;2023-02-25T09:19:14;2.67;;;2.40;;
33270;SDS011;53180;51.344;6.152;2023-02-25T09:21:44;3.20;;;2.53;;
33270;SDS011;53180;51.344;6.152;2023-02-25T09:24:14;2.50;;;2.30;;
33270;SDS011;53180;51.344;6.152;2023-02-25T09:26:43;5.28;;;2.30;;
33270;SDS011;53180;51.344;6.152;2023-02-25T09:29:13;2.38;;;2.15;;
33270;SDS011;53180;51.344;6.152;2023-02-25T09:31:41;2.70;;;2.20;;
33270;SDS011;53180;51.344;6.152;2023-02-25T09:34:10;2.53;;;2.33;;
33270;SDS011;53180;51.344;6.152;2023-02-25T09:36:40;2.03;;;1.90;;
33270;SDS011;53180;51.344;6.152;2023-02-25T09:39:09;2.53;;;2.33;;
33270;SDS011;53180;51.344;6.152;2023-02-25T09:41:43;3.28;;;2.03;;
33270;SDS011;53180;51.344;6.152;2023-02-25T09:44:23;2.53;;;1.98;;
33270;SDS011;53180;51.344;6.152;2023-02-25T09:46:59;3.30;;;2.33;;
33270;SDS011;53180;51.344;6.152;2023-02-25T09:49:32;2.38;;;2.17;;
33270;SDS011;53180;51.344;6.152;2023-02-25T09:52:06;2.42;;;2.15;;
33270;SDS011;53180;51.344;6.152;2023-02-25T09:54:43;2.25;;;2.10;;
33270;SDS011;53180;51.344;6.152;2023-02-25T09:57:14;3.38;;;2.40;;
33270;SDS011;53180;51.344;6.152;2023-02-25T09:59:48;3.05;;;2.38;;
33270;SDS011;53180;51.344;6.152;2023-02-25T10:02:24;3.20;;;2.28;;
33270;SDS011;53180;51.344;6.152;2023-02-25T10:05:06;11.55;;;2.58;;
33270;SDS011;53180;51.344;6.152;2023-02-25T10:07:53;5.07;;;2.58;;
33270;SDS011;53180;51.344;6.152;2023-02-25T10:10:34;3.42;;;2.20;;
33270;SDS011;53180;51.344;6.152;2023-02-25T10:13:15;2.40;;;2.20;;
33270;SDS011;53180;51.344;6.152;2023-02-25T10:15:57;3.58;;;2.33;;
33270;SDS011;53180;51.344;6.152;2023-02-25T10:18:42;2.17;;;1.80;;
33270;SDS011;53180;51.344;6.152;2023-02-25T10:21:30;3.83;;;2.45;;
33270;SDS011;53180;51.344;6.152;2023-02-25T10:24:16;2.58;;;2.00;;
33270;SDS011;53180;51.344;6.152;2023-02-25T10:26:58;8.50;;;2.70;;
33270;SDS011;53180;51.344;6.152;2023-02-25T10:29:37;4.93;;;2.30;;
33270;SDS011;53180;51.344;6.152;2023-02-25T10:32:15;2.13;;;1.92;;
33270;SDS011;53180;51.344;6.152;2023-02-25T10:34:49;2.20;;;2.00;;
33270;SDS011;53180;51.344;6.152;2023-02-25T10:37:20;5.10;;;2.40;;
33270;SDS011;53180;51.344;6.152;2023-02-25T10:39:53;2.20;;;2.10;;
33270;SDS011;53180;51.344;6.152;2023-02-25T10:42:25;2.00;;;1.90;;
33270;SDS011;53180;51.344;6.152;2023-02-25T10:44:54;4.97;;;2.28;;
33270;SDS011;53180;51.344;6.152;2023-02-25T10:47:30;2.22;;;2.00;;
33270;SDS011;53180;51.344;6.152;2023-02-25T10:50:12;3.13;;;2.20;;
33270;SDS011;53180;51.344;6.152;2023-02-25T10:52:50;2.10;;;2.00;;
33270;SDS011;53180;51.344;6.152;2023-02-25T10:55:26;2.50;;;2.03;;
33270;SDS011;53180;51.344;6.152;2023-02-25T10:58:06;2.55;;;2.30;;
33270;SDS011;53180;51.344;6.152;2023-02-25T11:01:00;5.35;;;2.30;;
33270;SDS011;53180;51.344;6.152;2023-02-25T11:03:39;2.10;;;2.00;;
33270;SDS011;53180;51.344;6.152;2023-02-25T11:06:17;2.10;;;2.00;;
33270;SDS011;53180;51.344;6.152;2023-02-25T11:08:50;2.22;;;2.03;;
33270;SDS011;53180;51.344;6.152;2023-02-25T11:11:20;2.58;;;1.73;;
33270;SDS011;53180;51.344;6.152;2023-02-25T11:14:01;8.07;;;2.03;;
33270;SDS011;53180;51.344;6.152;2023-02-25T11:16:33;1.52;;;1.42;;
33270;SDS011;53180;51.344;6.152;2023-02-25T11:21:42;1.88;;;1.55;;
33270;SDS011;53180;51.344;6.152;2023-02-25T11:24:12;1.63;;;1.52;;
33270;SDS011;53180;51.344;6.152;2023-02-25T11:26:43;3.10;;;1.65;;
33270;SDS011;53180;51.344;6.152;2023-02-25T11:31:44;8.50;;;1.50;;
33270;SDS011;53180;51.344;6.152;2023-02-25T11:34:20;1.35;;;1.25;;
33270;SDS011;53180;51.344;6.152;2023-02-25T11:36:52;3.17;;;1.42;;
33270;SDS011;53180;51.344;6.152;2023-02-25T11:39:21;1.35;;;1.20;;
33270;SDS011;53180;51.344;6.152;2023-02-25T11:41:52;1.25;;;1.15;;
33270;SDS011;53180;51.344;6.152;2023-02-25T11:44:24;2.92;;;1.20;;
33270;SDS011;53180;51.344;6.152;2023-02-25T11:47:06;1.35;;;1.20;;
33270;SDS011;53180;51.344;6.152;2023-02-25T11:52:39;6.18;;;1.20;;
33270;SDS011;53180;51.344;6.152;2023-02-25T11:55:16;1.83;;;1.30;;
33270;SDS011;53180;51.344;6.152;2023-02-25T11:58:00;1.00;;;1.00;;
33270;SDS011;53180;51.344;6.152;2023-02-25T12:00:37;1.17;;;1.08;;
33270;SDS011;53180;51.344;6.152;2023-02-25T12:03:22;1.02;;;1.02;;
33270;SDS011;53180;51.344;6.152;2023-02-25T12:06:19;2.45;;;1.17;;
33270;SDS011;53180;51.344;6.152;2023-02-25T12:12:25;1.98;;;1.02;;
33270;SDS011;53180;51.344;6.152;2023-02-25T12:15:52;1.13;;;0.90;;
33270;SDS011;53180;51.344;6.152;2023-02-25T12:19:26;3.65;;;0.88;;
33270;SDS011;53180;51.344;6.152;2023-02-25T12:22:35;3.55;;;0.77;;
33270;SDS011;53180;51.344;6.152;2023-02-25T12:25:34;5.43;;;0.90;;
33270;SDS011;53180;51.344;6.152;2023-02-25T12:34:36;1.20;;;1.10;;
33270;SDS011;53180;51.344;6.152;2023-02-25T12:37:28;1.83;;;1.10;;
33270;SDS011;53180;51.344;6.152;2023-02-25T12:40:23;10.95;;;1.30;;
33270;SDS011;53180;51.344;6.152;2023-02-25T12:43:17;2.72;;;1.67;;
33270;SDS011;53180;51.344;6.152;2023-02-25T12:52:22;1.98;;;1.50;;
33270;SDS011;53180;51.344;6.152;2023-02-25T12:55:14;1.33;;;1.23;;
33270;SDS011;53180;51.344;6.152;2023-02-25T12:58:08;1.30;;;1.20;;
33270;SDS011;53180;51.344;6.152;2023-02-25T13:01:05;1.52;;;1.42;;
33270;SDS011;53180;51.344;6.152;2023-02-25T13:07:25;1.77;;;1.52;;
33270;SDS011;53180;51.344;6.152;2023-02-25T13:16:33;1.52;;;1.42;;
33270;SDS011;53180;51.344;6.152;2023-02-25T13:19:36;1.60;;;1.50;;
33270;SDS011;53180;51.344;6.152;2023-02-25T13:22:29;3.90;;;1.73;;
33270;SDS011;53180;51.344;6.152;2023-02-25T13:25:16;1.60;;;1.50;;
33270;SDS011;53180;51.344;6.152;2023-02-25T13:28:02;1.77;;;1.67;;
33270;SDS011;53180;51.344;6.152;2023-02-25T13:30:45;7.90;;;2.08;;
33270;SDS011;53180;51.344;6.152;2023-02-25T13:33:27;6.03;;;2.13;;
33270;SDS011;53180;51.344;6.152;2023-02-25T13:36:18;1.60;;;1.50;;
33270;SDS011;53180;51.344;6.152;2023-02-25T13:39:18;1.60;;;1.50;;
33270;SDS011;53180;51.344;6.152;2023-02-25T13:42:07;2.13;;;1.63;;
33270;SDS011;53180;51.344;6.152;2023-02-25T13:45:17;2.50;;;1.75;;
33270;SDS011;53180;51.344;6.152;2023-02-25T13:48:12;2.13;;;1.85;;
33270;SDS011;53180;51.344;6.152;2023-02-25T13:51:07;2.13;;;1.80;;
33270;SDS011;53180;51.344;6.152;2023-02-25T13:57:10;6.05;;;1.90;;
33270;SDS011;53180;51.344;6.152;2023-02-25T13:59:56;4.03;;;1.50;;
33270;SDS011;53180;51.344;6.152;2023-02-25T14:03:13;1.88;;;1.77;;
33270;SDS011;53180;51.344;6.152;2023-02-25T14:06:34;2.47;;;1.80;;
33270;SDS011;53180;51.344;6.152;2023-02-25T14:09:26;1.70;;;1.60;;
33270;SDS011;53180;51.344;6.152;2023-02-25T14:12:12;2.10;;;1.90;;
33270;SDS011;53180;51.344;6.152;2023-02-25T14:14:59;2.00;;;1.80;;
33270;SDS011;53180;51.344;6.152;2023-02-25T14:17:49;2.13;;;1.90;;
33270;SDS011;53180;51.344;6.152;2023-02-25T14:20:41;1.90;;;1.80;;
33270;SDS011;53180;51.344;6.152;2023-02-25T14:23:20;2.35;;;1.98;;
33270;SDS011;53180;51.344;6.152;2023-02-25T14:26:12;2.55;;;1.98;;
33270;SDS011;53180;51.344;6.152;2023-02-25T14:28:52;2.15;;;2.00;;
33270;SDS011;53180;51.344;6.152;2023-02-25T14:31:42;2.00;;;1.90;;
33270;SDS011;53180;51.344;6.152;2023-02-25T14:34:41;2.22;;;2.03;;
33270;SDS011;53180;51.344;6.152;2023-02-25T14:37:30;2.10;;;1.90;;
33270;SDS011;53180;51.344;6.152;2023-02-25T14:40:08;6.40;;;2.38;;
33270;SDS011;53180;51.344;6.152;2023-02-25T14:42:54;2.55;;;2.10;;
33270;SDS011;53180;51.344;6.152;2023-02-25T14:45:39;2.38;;;2.17;;
33270;SDS011;53180;51.344;6.152;2023-02-25T14:48:13;2.30;;;2.15;;
33270;SDS011;53180;51.344;6.152;2023-02-25T14:50:48;3.15;;;2.40;;
33270;SDS011;53180;51.344;6.152;2023-02-25T14:53:32;2.00;;;1.90;;
33270;SDS011;53180;51.344;6.152;2023-02-25T14:56:24;2.20;;;2.10;;
33270;SDS011;53180;51.344;6.152;2023-02-25T14:59:24;2.45;;;2.25;;
33270;SDS011;53180;51.344;6.152;2023-02-25T15:02:39;2.35;;;2.15;;
33270;SDS011;53180;51.344;6.152;2023-02-25T15:11:49;3.30;;;2.38;;
33270;SDS011;53180;51.344;6.152;2023-02-25T15:15:01;3.15;;;2.85;;
33270;SDS011;53180;51.344;6.152;2023-02-25T15:18:37;2.42;;;2.33;;
33270;SDS011;53180;51.344;6.152;2023-02-25T15:21:49;2.25;;;2.05;;
33270;SDS011;53180;51.344;6.152;2023-02-25T15:24:44;2.42;;;2.22;;
33270;SDS011;53180;51.344;6.152;2023-02-25T15:30:17;3.20;;;2.90;;
33270;SDS011;53180;51.344;6.152;2023-02-25T15:32:56;2.38;;;2.28;;
33270;SDS011;53180;51.344;6.152;2023-02-25T15:35:49;2.42;;;2.30;;
33270;SDS011;53180;51.344;6.152;2023-02-25T15:47:14;2.42;;;2.33;;
33270;SDS011;53180;51.344;6.152;2023-02-25T15:49:54;2.67;;;2.47;;
33270;SDS011;53180;51.344;6.152;2023-02-25T15:55:38;2.95;;;2.75;;
33270;SDS011;53180;51.344;6.152;2023-02-25T16:01:26;2.80;;;2.60;;
33270;SDS011;53180;51.344;6.152;2023-02-25T16:04:06;3.75;;;3.00;;
33270;SDS011;53180;51.344;6.152;2023-02-25T16:07:12;3.15;;;2.90;;
33270;SDS011;53180;51.344;6.152;2023-02-25T16:09:46;2.75;;;2.55;;
33270;SDS011;53180;51.344;6.152;2023-02-25T16:12:22;2.72;;;2.53;;
33270;SDS011;53180;51.344;6.152;2023-02-25T16:14:51;2.80;;;2.60;;
33270;SDS011;53180;51.344;6.152;2023-02-25T16:17:26;26.95;;;9.82;;
33270;SDS011;53180;51.344;6.152;2023-02-25T16:20:02;3.30;;;2.90;;
33270;SDS011;53180;51.344;6.152;2023-02-25T16:22:42;3.72;;;2.92;;
33270;SDS011;53180;51.344;6.152;2023-02-25T16:25:14;3.33;;;3.03;;
33270;SDS011;53180;51.344;6.152;2023-02-25T16:27:50;2.95;;;2.63;;
33270;SDS011;53180;51.344;6.152;2023-02-25T16:30:28;2.30;;;2.20;;
33270;SDS011;53180;51.344;6.152;2023-02-25T16:33:03;3.35;;;3.05;;
33270;SDS011;53180;51.344;6.152;2023-02-25T16:35:48;3.03;;;2.83;;
33270;SDS011;53180;51.344;6.152;2023-02-25T16:38:34;3.03;;;2.83;;
33270;SDS011;53180;51.344;6.152;2023-02-25T16:41:10;3.20;;;3.00;;
33270;SDS011;53180;51.344;6.152;2023-02-25T16:43:43;3.47;;;3.10;;